Time;durP1;ratioP1;P1;durP2;ratioP2;P2;SDS_P1;SDS_P2;PMS_P1;PMS_P2;Temp;Humidity;BMP_temperature;BMP_pressure;BME280_temperature;BME280_humidity;BME280_pressure;Samples;Min_cycle;Max_cycle;Signal;HPM_P1;HPM_P2
2023/09/21 00:00:10;;;;;;;9.95;7.05;;;;;;;18.78;53.84;99846.28;5055105;28;20055;-62
2023/09/21 00:02:35;;;;;;;12.02;6.70;;;;;;;18.78;53.93;99845.44;5055529;28;20029;-62
2023/09/21 00:05:00;;;;;;;10.60;7.15;;;;;;;18.78;54.20;99845.44;5056009;28;20363;-63
2023/09/21 00:07:27;;;;;;;10.60;6.80;;;;;;;18.67;54.60;99833.13;5055605;28;20171;-62
2023/09/21 00:09:52;;;;;;;15.90;7.07;;;;;;;18.73;54.70;99854.09;5055433;28;20025;-62
2023/09/21 00:12:17;;;;;;;8.60;6.63;;;;;;;18.73;54.96;99853.28;5054933;28;20048;-59
2023/09/21 00:14:43;;;;;;;12.93;7.05;;;;;;;18.72;55.16;99851.59;5055944;28;20039;-62
2023/09/21 00:17:09;;;;;;;8.15;6.53;;;;;;;18.72;55.21;99849.72;5055611;28;20055;-62
2023/09/21 00:19:34;;;;;;;12.98;7.22;;;;;;;18.72;55.42;99849.72;5054896;28;20057;-63
2023/09/21 00:22:00;;;;;;;10.80;7.03;;;;;;;18.68;55.54;99845.66;5054798;28;20025;-63
2023/09/21 00:24:25;;;;;;;7.97;7.15;;;;;;;18.68;55.68;99851.09;5055848;28;20470;-62
2023/09/21 00:26:51;;;;;;;11.05;7.65;;;;;;;18.67;55.70;99856.66;5054602;28;20040;-62
2023/09/21 00:29:16;;;;;;;9.38;7.05;;;;;;;18.69;55.86;99847.34;5054919;28;20422;-62
2023/09/21 00:31:42;;;;;;;13.10;6.75;;;;;;;18.67;56.02;99854.81;5054791;28;20387;-62
2023/09/21 00:34:08;;;;;;;10.15;6.97;;;;;;;18.66;56.10;99861.28;5055436;28;20093;-62
2023/09/21 00:36:35;;;;;;;11.10;6.47;;;;;;;18.65;56.20;99857.69;5055251;28;20033;-62
2023/09/21 00:39:02;;;;;;;9.82;7.43;;;;;;;18.61;56.25;99855.53;5054813;28;20102;-62
2023/09/21 00:41:31;;;;;;;10.32;7.30;;;;;;;18.65;56.44;99868.53;5054739;28;20275;-62
2023/09/21 00:43:58;;;;;;;9.50;6.72;;;;;;;18.62;56.67;99858.06;5055070;28;20118;-61
2023/09/21 00:46:27;;;;;;;9.20;6.55;;;;;;;18.62;56.55;99871.59;5055341;28;20052;-62
2023/09/21 00:48:53;;;;;;;11.70;7.15;;;;;;;18.63;56.54;99858.91;5054664;28;20040;-62
2023/09/21 00:51:18;;;;;;;8.45;6.97;;;;;;;18.63;56.61;99864.34;5054717;28;20076;-63
2023/09/21 00:53:45;;;;;;;10.50;6.72;;;;;;;18.63;56.79;99862.44;5054733;28;20117;-62
2023/09/21 00:56:13;;;;;;;11.48;7.00;;;;;;;18.67;56.29;99862.09;5054756;28;20033;-63
2023/09/21 00:59:00;;;;;;;9.70;6.80;;;;;;;18.76;56.25;99863.78;5054035;28;20466;-63
2023/09/21 01:01:28;;;;;;;13.27;6.93;;;;;;;18.47;56.38;99840.84;5054411;28;20099;-62
2023/09/21 01:04:00;;;;;;;9.15;7.05;;;;;;;18.60;56.44;99859.28;5053165;28;20467;-63
2023/09/21 01:06:26;;;;;;;13.57;7.28;;;;;;;18.59;56.58;99876.56;5054390;28;20341;-61
2023/09/21 01:08:52;;;;;;;10.52;7.18;;;;;;;18.60;56.65;99886.38;5053919;28;20091;-60
2023/09/21 01:11:19;;;;;;;12.07;6.65;;;;;;;18.58;56.59;99880.28;5053915;28;20024;-62
2023/09/21 01:13:47;;;;;;;8.10;6.57;;;;;;;18.57;56.73;99884.03;5054311;28;20115;-64
2023/09/21 01:16:15;;;;;;;10.15;6.90;;;;;;;18.55;56.83;99892.31;5053886;28;20044;-62
2023/09/21 01:18:41;;;;;;;10.60;7.28;;;;;;;18.55;56.72;99896.88;5054057;28;20039;-62
2023/09/21 01:21:13;;;;;;;8.60;7.15;;;;;;;18.57;56.59;99894.88;5054122;28;20032;-61
2023/09/21 01:23:46;;;;;;;9.50;7.53;;;;;;;18.65;56.81;99894.84;5053441;28;20052;-62
2023/09/21 01:26:14;;;;;;;10.00;7.25;;;;;;;18.59;56.82;99895.53;5054245;28;20060;-62
2023/09/21 01:28:40;;;;;;;9.63;7.18;;;;;;;18.57;56.94;99901.13;5054022;28;20085;-61
2023/09/21 01:31:11;;;;;;;8.15;6.40;;;;;;;18.57;56.98;99900.28;5053545;28;20055;-63
2023/09/21 01:33:38;;;;;;;10.13;6.82;;;;;;;18.55;57.25;99905.00;5053977;28;20390;-62
2023/09/21 01:36:08;;;;;;;11.32;7.65;;;;;;;18.52;57.52;99900.81;5053935;28;20029;-62
2023/09/21 01:38:34;;;;;;;10.55;7.15;;;;;;;18.48;57.65;99902.19;5053677;28;20028;-61
2023/09/21 01:41:00;;;;;;;8.80;7.38;;;;;;;18.48;57.78;99899.47;5053641;28;20033;-65
2023/09/21 01:43:26;;;;;;;12.18;7.45;;;;;;;18.47;57.64;99904.03;5054124;28;20029;-62
2023/09/21 01:45:52;;;;;;;10.15;7.32;;;;;;;18.39;58.03;99895.06;5053841;28;20471;-62
2023/09/21 01:48:20;;;;;;;10.40;7.45;;;;;;;18.41;58.25;99899.31;5053684;28;20192;-62
2023/09/21 01:50:48;;;;;;;11.65;7.68;;;;;;;18.41;58.25;99904.72;5053741;28;20458;-62
2023/09/21 01:53:18;;;;;;;9.63;7.35;;;;;;;18.36;58.44;99909.84;5053664;28;20344;-62
2023/09/21 01:55:47;;;;;;;13.50;7.20;;;;;;;18.28;58.78;99899.00;5053297;28;20341;-62
2023/09/21 01:58:15;;;;;;;9.85;6.97;;;;;;;18.33;58.84;99913.72;5052167;28;20033;-64
2023/09/21 02:00:43;;;;;;;9.50;7.18;;;;;;;18.26;59.14;99907.31;5052864;28;20025;-63
2023/09/21 02:03:09;;;;;;;9.07;7.28;;;;;;;18.15;59.45;99900.38;5053500;28;20070;-62
2023/09/21 02:05:36;;;;;;;9.25;7.13;;;;;;;18.18;59.45;99910.88;5052303;28;20108;-63
2023/09/21 02:08:05;;;;;;;7.82;7.03;;;;;;;17.97;59.59;99878.00;5053390;28;20087;-62
2023/09/21 02:10:36;;;;;;;9.35;7.10;;;;;;;18.20;59.36;99914.25;5053686;28;20064;-62
2023/09/21 02:13:05;;;;;;;9.20;6.85;;;;;;;18.18;59.47;99916.28;5053135;28;20049;-61
2023/09/21 02:15:34;;;;;;;15.85;7.30;;;;;;;18.17;59.57;99908.31;5052974;28;20086;-60
2023/09/21 02:18:02;;;;;;;12.43;7.18;;;;;;;18.10;59.57;99900.06;5052935;28;20068;-63
2023/09/21 02:20:30;;;;;;;10.65;7.22;;;;;;;18.15;59.78;99903.09;5053598;28;20029;-62
2023/09/21 02:22:58;;;;;;;7.63;6.22;;;;;;;18.11;59.78;99900.88;5053006;28;20032;-61
2023/09/21 02:25:40;;;;;;;8.05;6.65;;;;;;;18.16;59.99;99918.31;5052807;28;20033;-63
2023/09/21 02:28:10;;;;;;;8.40;6.55;;;;;;;18.21;60.00;99910.53;5052977;28;20025;-63
2023/09/21 02:30:39;;;;;;;9.95;6.78;;;;;;;18.20;59.86;99916.09;5053325;28;20108;-62
2023/09/21 02:33:06;;;;;;;10.90;6.97;;;;;;;18.22;59.96;99923.06;5052925;28;20025;-63
2023/09/21 02:35:33;;;;;;;10.38;7.22;;;;;;;18.21;59.85;99920.53;5052475;28;20082;-62
2023/09/21 02:38:00;;;;;;;7.38;6.53;;;;;;;18.19;60.29;99919.84;5052627;28;20036;-61
2023/09/21 02:40:25;;;;;;;7.93;6.53;;;;;;;18.20;60.23;99913.41;5053469;28;20079;-59
2023/09/21 02:42:55;;;;;;;10.07;6.80;;;;;;;18.20;60.18;99914.25;5052828;28;20037;-62
2023/09/21 02:45:23;;;;;;;10.18;7.30;;;;;;;18.14;60.35;99922.22;5052394;28;20090;-62
2023/09/21 02:48:00;;;;;;;11.70;7.10;;;;;;;18.13;60.42;99924.09;5052395;28;20367;-63
2023/09/21 02:50:30;;;;;;;13.73;7.53;;;;;;;18.08;60.66;99921.03;5053288;28;20036;-63
2023/09/21 02:53:05;;;;;;;9.52;7.60;;;;;;;18.07;60.88;99922.03;5052419;28;20033;-63
2023/09/21 02:55:33;;;;;;;9.00;7.07;;;;;;;18.00;60.98;99918.31;5052219;28;20037;-62
2023/09/21 02:58:10;;;;;;;11.23;7.13;;;;;;;18.05;61.27;99932.22;5052343;28;20040;-62
2023/09/21 03:00:42;;;;;;;11.18;7.57;;;;;;;18.01;61.37;99930.84;5052241;28;20037;-65
2023/09/21 03:03:16;;;;;;;11.45;8.10;;;;;;;18.08;61.36;99930.00;5052553;28;20032;-62
2023/09/21 03:05:46;;;;;;;10.25;7.22;;;;;;;17.85;61.32;99916.28;5052161;28;20025;-62
2023/09/21 03:08:14;;;;;;;10.45;7.63;;;;;;;18.03;61.34;99935.09;5052307;28;20025;-62
2023/09/21 03:10:50;;;;;;;12.13;8.55;;;;;;;18.07;61.22;99941.00;5052115;28;20355;-63
2023/09/21 03:13:18;;;;;;;11.80;7.88;;;;;;;18.08;61.11;99948.97;5051943;28;20103;-62
2023/09/21 03:15:45;;;;;;;12.57;7.53;;;;;;;18.04;61.20;99942.22;5053285;28;20037;-63
2023/09/21 03:18:11;;;;;;;10.98;7.80;;;;;;;18.06;61.08;99944.72;5056180;28;20056;-61
2023/09/21 03:20:37;;;;;;;10.75;7.68;;;;;;;18.06;61.12;99942.88;5056119;28;20033;-63
2023/09/21 03:23:05;;;;;;;13.15;7.97;;;;;;;18.07;61.30;99962.69;5056852;28;20107;-62
2023/09/21 03:25:40;;;;;;;12.07;7.80;;;;;;;18.12;61.27;99948.63;5055777;28;20068;-61
2023/09/21 03:28:13;;;;;;;9.60;8.20;;;;;;;18.16;61.24;99958.97;5056231;28;20029;-63
2023/09/21 03:30:40;;;;;;;15.93;8.55;;;;;;;18.14;61.01;99965.56;5056583;28;20336;-62
2023/09/21 03:33:06;;;;;;;12.20;8.48;;;;;;;18.08;61.25;99965.22;5055670;28;20387;-63
2023/09/21 03:35:32;;;;;;;11.52;7.40;;;;;;;18.05;61.13;99953.88;5055868;28;20054;-61
2023/09/21 03:37:58;;;;;;;13.05;8.35;;;;;;;18.13;61.06;99959.31;5056437;28;20098;-62
2023/09/21 03:40:26;;;;;;;10.57;7.85;;;;;;;18.14;61.07;99952.88;5055995;28;20032;-64
2023/09/21 03:42:55;;;;;;;10.50;7.82;;;;;;;18.12;61.17;99954.91;5055673;28;20037;-62
2023/09/21 03:45:24;;;;;;;9.38;7.75;;;;;;;18.15;61.25;99968.13;5055760;28;20044;-62
2023/09/21 03:47:54;;;;;;;11.70;7.85;;;;;;;17.97;61.23;99927.63;5056333;28;20487;-62
2023/09/21 03:50:20;;;;;;;11.65;8.25;;;;;;;18.20;61.10;99962.16;5055628;28;20456;-62
2023/09/21 03:52:47;;;;;;;14.05;8.35;;;;;;;18.25;60.91;99969.78;5055576;28;20098;-62
2023/09/21 03:55:16;;;;;;;12.02;8.45;;;;;;;18.30;61.19;99978.25;5056054;28;20033;-61
2023/09/21 03:57:43;;;;;;;10.15;8.25;;;;;;;18.34;60.80;99985.06;5055908;28;20110;-63
2023/09/21 04:00:26;;;;;;;9.88;8.15;;;;;;;18.38;60.83;99986.41;5055444;28;20408;-63
2023/09/21 04:02:57;;;;;;;9.75;8.07;;;;;;;18.43;60.31;99985.88;5055197;28;20021;-63
2023/09/21 04:05:24;;;;;;;10.38;7.80;;;;;;;18.37;60.36;99984.72;5056112;28;20032;-62
2023/09/21 04:07:49;;;;;;;10.32;7.97;;;;;;;18.38;60.41;99989.09;5055999;28;20409;-64
2023/09/21 04:10:15;;;;;;;9.75;7.40;;;;;;;18.40;60.52;99986.22;5055242;28;20029;-63
2023/09/21 04:12:47;;;;;;;14.80;7.80;;;;;;;18.42;60.38;99982.31;5055049;28;20383;-61
2023/09/21 04:15:13;;;;;;;10.13;7.18;;;;;;;18.41;60.31;99991.47;5055857;28;20033;-63
2023/09/21 04:17:39;;;;;;;7.00;6.30;;;;;;;18.40;60.64;99986.22;5054571;28;20418;-61
2023/09/21 04:20:12;;;;;;;10.85;6.75;;;;;;;18.45;60.23;99992.81;5054960;28;20043;-62
2023/09/21 04:22:42;;;;;;;10.07;6.68;;;;;;;18.51;60.30;99988.59;5054916;28;20033;-62
2023/09/21 04:25:14;;;;;;;7.30;6.60;;;;;;;18.57;59.95;99997.91;5055651;28;20351;-63
2023/09/21 04:27:42;;;;;;;8.70;6.65;;;;;;;18.54;60.07;99998.22;5054722;28;20455;-64
2023/09/21 04:30:09;;;;;;;9.20;6.40;;;;;;;18.53;59.95;99989.25;5054476;28;20091;-62
2023/09/21 04:32:38;;;;;;;9.98;6.78;;;;;;;18.56;59.83;100004.31;5054662;28;20043;-60
2023/09/21 04:35:07;;;;;;;9.38;6.93;;;;;;;18.58;59.80;99996.88;5054617;28;20139;-61
2023/09/21 04:37:39;;;;;;;10.05;6.68;;;;;;;18.64;59.83;100001.59;5055382;28;20119;-60
2023/09/21 04:40:10;;;;;;;9.57;7.18;;;;;;;18.82;59.35;100003.28;5054885;28;20025;-61
2023/09/21 04:42:46;;;;;;;12.32;6.80;;;;;;;18.97;58.92;99995.25;5054654;28;20060;-61
2023/09/21 04:45:13;;;;;;;7.50;6.60;;;;;;;19.08;58.24;100008.47;5055314;28;20121;-62
2023/09/21 04:47:40;;;;;;;7.35;6.55;;;;;;;19.22;57.48;99996.88;5054714;28;20106;-61
2023/09/21 04:50:09;;;;;;;7.55;6.57;;;;;;;19.48;57.07;100009.31;5054507;28;20044;-62
2023/09/21 04:52:35;;;;;;;7.38;6.68;;;;;;;19.48;56.77;100008.44;5054445;28;20068;-59
2023/09/21 04:55:03;;;;;;;9.55;6.72;;;;;;;19.46;56.92;100007.78;5054602;28;20116;-62
2023/09/21 04:57:30;;;;;;;9.48;6.90;;;;;;;19.50;56.86;100019.97;5054929;28;20029;-62
2023/09/21 04:59:57;;;;;;;10.57;7.50;;;;;;;19.38;57.12;100018.69;5054136;28;20087;-62
2023/09/21 05:02:23;;;;;;;12.80;7.22;;;;;;;19.33;57.58;100014.66;5053921;28;20104;-61
2023/09/21 05:04:50;;;;;;;8.00;7.20;;;;;;;19.26;57.17;100008.22;5054321;28;20055;-63
2023/09/21 05:07:16;;;;;;;13.80;9.52;;;;;;;19.39;57.22;100025.81;5054085;28;20040;-62
2023/09/21 05:09:44;;;;;;;12.85;8.55;;;;;;;19.45;57.26;100030.53;5053913;28;20071;-64
2023/09/21 05:12:09;;;;;;;10.95;7.68;;;;;;;19.48;57.36;100025.59;5054128;28;20037;-62
2023/09/21 05:14:35;;;;;;;10.13;7.53;;;;;;;19.58;56.84;100033.53;5053736;28;20106;-60
2023/09/21 05:17:00;;;;;;;10.75;7.45;;;;;;;19.72;56.72;100029.22;5054204;28;20072;-62
2023/09/21 05:19:26;;;;;;;9.02;7.40;;;;;;;19.90;56.17;100022.66;5054197;28;20032;-63
2023/09/21 05:21:56;;;;;;;12.55;7.45;;;;;;;20.02;55.49;100033.97;5053698;28;20029;-61
2023/09/21 05:24:24;;;;;;;9.50;7.78;;;;;;;20.13;55.61;100041.69;5054003;28;20025;-63
2023/09/21 05:26:50;;;;;;;10.95;7.72;;;;;;;20.18;55.18;100036.56;5054125;28;20029;-63
2023/09/21 05:29:16;;;;;;;11.93;8.23;;;;;;;20.20;55.04;100041.81;5053681;28;20025;-62
2023/09/21 05:31:41;;;;;;;11.43;8.15;;;;;;;19.94;55.06;99997.66;5053406;28;20037;-62
2023/09/21 05:34:07;;;;;;;9.50;8.15;;;;;;;20.14;55.31;100035.22;5054444;28;20036;-62
2023/09/21 05:36:32;;;;;;;15.07;8.48;;;;;;;20.13;55.31;100041.69;5053759;28;20036;-62
2023/09/21 05:39:00;;;;;;;12.05;7.78;;;;;;;20.07;55.60;100035.09;5052504;28;20087;-61
2023/09/21 05:41:27;;;;;;;11.18;7.97;;;;;;;20.11;55.57;100040.19;5053846;28;20037;-61
2023/09/21 05:43:53;;;;;;;11.52;8.18;;;;;;;20.11;55.58;100035.59;5054182;28;20029;-62
2023/09/21 05:46:18;;;;;;;12.52;8.18;;;;;;;20.15;55.03;100036.94;5053105;28;20051;-63
2023/09/21 05:48:45;;;;;;;11.27;8.02;;;;;;;20.16;55.46;100041.34;5053228;28;20104;-63
2023/09/21 05:51:11;;;;;;;13.00;8.48;;;;;;;20.15;55.59;100042.34;5053586;28;20406;-61
2023/09/21 05:53:37;;;;;;;10.73;7.88;;;;;;;20.13;55.38;100049.84;5053531;28;20129;-58
2023/09/21 05:56:04;;;;;;;15.82;10.13;;;;;;;20.08;55.42;100052.28;5053564;28;20051;-63
2023/09/21 05:58:32;;;;;;;12.80;8.77;;;;;;;20.05;55.46;100055.34;5052116;28;20428;-61
2023/09/21 06:01:01;;;;;;;12.15;8.48;;;;;;;20.05;55.44;100058.91;5053816;28;20052;-64
2023/09/21 06:03:28;;;;;;;13.10;9.63;;;;;;;20.06;55.39;100059.75;5052438;28;20463;-62
2023/09/21 06:05:54;;;;;;;13.95;9.00;;;;;;;20.04;55.49;100061.81;5053077;28;20028;-62
2023/09/21 06:08:19;;;;;;;12.88;9.20;;;;;;;20.04;55.60;100062.66;5052959;28;20109;-63
2023/09/21 06:10:46;;;;;;;14.15;9.40;;;;;;;20.04;55.48;100067.25;5053605;28;20456;-62
2023/09/21 06:13:12;;;;;;;15.18;9.32;;;;;;;20.01;55.43;100067.59;5053001;28;20383;-63
2023/09/21 06:15:47;;;;;;;12.23;9.18;;;;;;;19.87;56.04;100042.88;5052981;28;20036;-63
2023/09/21 06:18:14;;;;;;;16.08;9.57;;;;;;;19.99;55.77;100065.06;5052692;28;20098;-64
2023/09/21 06:20:43;;;;;;;11.50;9.05;;;;;;;20.02;55.74;100074.75;5053186;28;20029;-64
2023/09/21 06:23:09;;;;;;;15.20;9.63;;;;;;;19.96;55.87;100061.84;5053270;28;20036;-59
2023/09/21 06:25:36;;;;;;;18.30;9.27;;;;;;;19.99;56.04;100075.06;5052735;28;20094;-63
2023/09/21 06:28:02;;;;;;;13.82;9.63;;;;;;;20.01;55.57;100076.59;5052448;28;20032;-62
2023/09/21 06:30:28;;;;;;;17.20;10.30;;;;;;;20.06;55.45;100073.34;5053321;28;20029;-63
2023/09/21 06:32:55;;;;;;;15.32;10.25;;;;;;;20.11;55.65;100073.66;5053014;28;20459;-62
2023/09/21 06:35:24;;;;;;;21.00;10.43;;;;;;;20.19;55.32;100075.47;5052485;28;20432;-62
2023/09/21 06:37:54;;;;;;;14.07;10.23;;;;;;;20.21;55.28;100078.84;5052488;28;20116;-63
2023/09/21 06:40:21;;;;;;;19.15;10.35;;;;;;;20.26;54.98;100083.75;5053085;28;20029;-62
2023/09/21 06:42:46;;;;;;;18.67;9.82;;;;;;;20.07;54.85;100039.72;5052485;28;20033;-64
2023/09/21 06:45:12;;;;;;;13.93;10.38;;;;;;;20.33;54.76;100082.81;5052324;28;20371;-63
2023/09/21 06:47:37;;;;;;;14.68;10.43;;;;;;;20.37;54.50;100075.16;5052378;28;20028;-63
2023/09/21 06:50:06;;;;;;;17.02;10.30;;;;;;;20.43;54.65;100081.75;5051977;28;20033;-64
2023/09/21 06:52:33;;;;;;;17.15;10.77;;;;;;;20.48;54.69;100079.31;5052292;28;20094;-63
2023/09/21 06:55:00;;;;;;;19.23;10.63;;;;;;;20.55;54.49;100079.44;5051981;28;20025;-62
2023/09/21 06:57:28;;;;;;;22.67;11.02;;;;;;;20.70;54.05;100077.59;5052178;28;20036;-63
2023/09/21 06:59:54;;;;;;;18.25;11.00;;;;;;;20.96;53.45;100076.34;5052251;28;20036;-62
2023/09/21 07:02:20;;;;;;;19.92;11.50;;;;;;;21.15;52.70;100076.84;5051936;28;20036;-63
2023/09/21 07:04:46;;;;;;;23.55;12.23;;;;;;;21.20;52.75;100083.41;5051208;28;20029;-62
2023/09/21 07:07:15;;;;;;;18.15;11.30;;;;;;;21.20;52.64;100072.53;5052236;28;20440;-62
2023/09/21 07:09:41;;;;;;;22.50;11.30;;;;;;;21.20;52.59;100071.66;5052290;28;20124;-64
2023/09/21 07:12:07;;;;;;;22.15;12.85;;;;;;;21.42;52.03;100079.94;5052531;28;20120;-62
2023/09/21 07:14:36;;;;;;;18.60;11.13;;;;;;;21.58;51.82;100073.41;5052586;28;20048;-62
2023/09/21 07:17:03;;;;;;;16.13;11.50;;;;;;;21.79;51.26;100089.84;5052097;28;20592;-63
2023/09/21 07:19:29;;;;;;;14.93;11.48;;;;;;;21.84;51.24;100078.38;5052285;28;20040;-62
2023/09/21 07:21:54;;;;;;;20.00;11.60;;;;;;;21.93;51.31;100081.84;5052369;28;20040;-63
2023/09/21 07:24:20;;;;;;;18.70;11.57;;;;;;;22.13;51.02;100083.94;5052017;28;20029;-62
2023/09/21 07:26:45;;;;;;;16.63;11.23;;;;;;;22.25;50.70;100074.19;5051845;28;20033;-62
2023/09/21 07:29:15;;;;;;;16.85;10.73;;;;;;;22.37;50.29;100082.72;5052616;28;20036;-62
2023/09/21 07:31:40;;;;;;;20.27;11.65;;;;;;;22.30;50.58;100082.63;5052076;28;20337;-62
2023/09/21 07:34:06;;;;;;;16.02;12.05;;;;;;;22.17;50.87;100094.25;5051984;28;20454;-62
2023/09/21 07:36:36;;;;;;;19.23;11.25;;;;;;;21.94;51.46;100095.31;5052160;28;20025;-62
2023/09/21 07:39:03;;;;;;;15.13;11.18;;;;;;;21.81;52.00;100089.69;5052584;28;20059;-63
2023/09/21 07:41:31;;;;;;;17.63;11.55;;;;;;;21.88;51.98;100092.50;5051786;28;20116;-62
2023/09/21 07:43:57;;;;;;;20.00;11.40;;;;;;;21.93;51.68;100079.13;5051810;28;20029;-62
2023/09/21 07:46:23;;;;;;;20.17;11.05;;;;;;;22.12;51.29;100080.38;5052309;28;20035;-62
2023/09/21 07:48:49;;;;;;;20.83;11.57;;;;;;;22.21;51.13;100090.13;5052158;28;20079;-63
2023/09/21 07:51:15;;;;;;;16.40;12.05;;;;;;;22.26;50.93;100089.53;5051633;28;20474;-62
2023/09/21 07:53:41;;;;;;;16.42;11.63;;;;;;;22.33;50.76;100095.91;5052029;28;20033;-63
2023/09/21 07:56:12;;;;;;;15.90;11.07;;;;;;;22.50;50.19;100098.38;5052292;28;20025;-63
2023/09/21 07:58:37;;;;;;;16.85;11.60;;;;;;;22.65;49.50;100090.13;5052000;28;20122;-63
2023/09/21 08:01:03;;;;;;;17.45;12.43;;;;;;;22.77;48.96;100099.47;5051817;28;20091;-64
2023/09/21 08:03:29;;;;;;;12.93;10.95;;;;;;;22.83;48.49;100102.44;5053569;28;20025;-63
2023/09/21 08:05:55;;;;;;;16.17;11.10;;;;;;;22.90;48.73;100106.06;5055992;28;20032;-63
2023/09/21 08:08:24;;;;;;;15.65;11.05;;;;;;;23.01;47.95;100111.00;5055809;28;20110;-62
2023/09/21 08:10:51;;;;;;;14.60;10.40;;;;;;;23.02;47.79;100100.91;5055234;28;20044;-62
2023/09/21 08:13:17;;;;;;;15.77;11.38;;;;;;;23.04;47.87;100116.06;5055342;28;20053;-62
2023/09/21 08:15:43;;;;;;;22.70;11.70;;;;;;;22.89;48.25;100094.31;5055988;28;20045;-62
2023/09/21 08:18:10;;;;;;;15.05;11.40;;;;;;;22.84;48.13;100109.59;5055481;28;20025;-63
2023/09/21 08:20:39;;;;;;;17.17;11.52;;;;;;;22.73;48.56;100120.03;5055072;28;20037;-62
2023/09/21 08:23:08;;;;;;;18.85;12.07;;;;;;;22.68;48.35;100114.31;5055117;28;20044;-63
2023/09/21 08:25:37;;;;;;;18.92;11.82;;;;;;;22.57;48.55;100126.59;5055357;28;20032;-64
2023/09/21 08:28:03;;;;;;;16.85;11.90;;;;;;;22.43;49.17;100120.13;5055553;28;20332;-64
2023/09/21 08:30:30;;;;;;;18.33;12.38;;;;;;;22.37;49.64;100116.31;5054853;28;20123;-62
2023/09/21 08:32:57;;;;;;;18.25;12.32;;;;;;;22.34;49.66;100124.03;5054641;28;20033;-62
2023/09/21 08:35:22;;;;;;;15.85;11.65;;;;;;;22.26;50.04;100111.34;5055170;28;20025;-64
2023/09/21 08:37:50;;;;;;;16.27;12.15;;;;;;;22.32;49.98;100128.81;5055027;28;20079;-64
2023/09/21 08:40:21;;;;;;;19.95;13.38;;;;;;;22.31;50.34;100124.41;5053831;28;20036;-63
2023/09/21 08:42:51;;;;;;;19.73;13.13;;;;;;;22.26;50.86;100135.06;5054506;28;20353;-62
2023/09/21 08:45:19;;;;;;;20.55;13.13;;;;;;;22.06;51.37;100136.53;5054364;28;20056;-59
2023/09/21 08:47:46;;;;;;;21.75;13.35;;;;;;;21.94;51.58;100135.31;5054799;28;20029;-63
2023/09/21 08:50:13;;;;;;;23.33;13.13;;;;;;;21.82;52.02;100143.16;5054378;28;20045;-62
2023/09/21 08:52:44;;;;;;;18.73;13.30;;;;;;;21.67;52.17;100143.16;5054087;28;20109;-63
2023/09/21 08:55:11;;;;;;;18.05;13.27;;;;;;;21.56;52.84;100157.22;5054486;28;20033;-63
2023/09/21 08:57:37;;;;;;;18.65;12.75;;;;;;;21.41;53.10;100149.06;5054258;28;20041;-63
2023/09/21 09:00:08;;;;;;;23.33;13.93;;;;;;;21.32;53.56;100149.16;5053433;28;20313;-64
2023/09/21 09:02:37;;;;;;;21.92;14.32;;;;;;;21.27;53.87;100148.88;5054593;28;20047;-63
2023/09/21 09:05:07;;;;;;;24.40;14.05;;;;;;;21.24;53.88;100149.25;5053913;28;20158;-64
2023/09/21 09:07:40;;;;;;;21.45;13.20;;;;;;;21.21;53.71;100145.00;5054401;28;20126;-63
2023/09/21 09:10:11;;;;;;;20.63;14.18;;;;;;;21.33;53.73;100156.28;5054448;28;20033;-62
2023/09/21 09:12:37;;;;;;;21.77;13.95;;;;;;;21.40;53.58;100152.81;5053840;28;20068;-63
2023/09/21 09:15:05;;;;;;;21.45;13.77;;;;;;;21.52;53.31;100148.59;5053984;28;20127;-63
2023/09/21 09:17:32;;;;;;;25.83;14.52;;;;;;;21.59;52.87;100141.34;5053909;28;20418;-63
2023/09/21 09:20:02;;;;;;;21.02;14.32;;;;;;;21.73;52.97;100155.19;5054189;28;20033;-63
2023/09/21 09:22:34;;;;;;;24.35;14.30;;;;;;;21.80;52.74;100162.41;5054032;28;20463;-63
2023/09/21 09:25:05;;;;;;;22.77;14.68;;;;;;;21.86;52.56;100152.63;5054412;28;20025;-64
2023/09/21 09:27:34;;;;;;;18.73;14.18;;;;;;;21.71;52.50;100127.31;5053482;28;20452;-63
2023/09/21 09:30:00;;;;;;;23.92;14.52;;;;;;;21.91;52.28;100152.06;5053816;28;20112;-62
2023/09/21 09:32:35;;;;;;;19.20;13.93;;;;;;;21.83;52.39;100142.13;5053924;28;20120;-64
2023/09/21 09:35:12;;;;;;;;;;;;;;;22.33;51.47;100152.34;5054333;28;20436;-63
2023/09/21 09:37:42;;;;;;;21.50;14.45;;;;;;;21.99;52.10;100156.56;5053470;28;20004;-64
2023/09/21 09:40:30;;;;;;;19.45;13.88;;;;;;;21.88;52.19;100153.28;5053820;28;20109;-62
2023/09/21 09:42:56;;;;;;;23.80;14.32;;;;;;;21.83;52.88;100146.72;5053525;28;20037;-64
2023/09/21 09:45:25;;;;;;;22.90;13.50;;;;;;;21.86;52.26;100147.19;5053725;28;20076;-62
2023/09/21 09:47:55;;;;;;;23.15;12.25;;;;;;;21.86;52.59;100152.63;5053363;28;20039;-61
2023/09/21 09:50:24;;;;;;;25.92;12.52;;;;;;;21.91;52.23;100160.25;5053764;28;20041;-63
2023/09/21 09:53:02;;;;;;;18.58;13.68;;;;;;;22.09;52.68;100162.56;5054139;28;20051;-62
2023/09/21 09:55:31;;;;;;;15.07;12.38;;;;;;;22.06;52.29;100168.41;5053827;28;20037;-62
2023/09/21 09:57:59;;;;;;;21.85;13.23;;;;;;;22.04;51.93;100151.38;5053234;28;20355;-62
2023/09/21 10:00:27;;;;;;;20.83;13.10;;;;;;;22.06;52.26;100168.41;5052585;28;20094;-62
2023/09/21 10:02:55;;;;;;;23.95;12.48;;;;;;;21.85;52.30;100140.03;5053814;28;20061;-61
2023/09/21 10:05:24;;;;;;;22.10;13.15;;;;;;;22.04;52.26;100167.75;5053390;28;20523;-64
2023/09/21 10:07:51;;;;;;;23.85;12.80;;;;;;;22.00;52.22;100170.00;5053047;28;20378;-63
2023/09/21 10:10:20;;;;;;;19.58;12.23;;;;;;;22.06;52.29;100171.13;5053706;28;20029;-63
2023/09/21 10:12:51;;;;;;;23.90;13.50;;;;;;;22.07;52.21;100164.63;5053447;28;20075;-63
2023/09/21 10:15:22;;;;;;;26.65;13.93;;;;;;;22.17;52.18;100158.88;5053107;28;20037;-62
2023/09/21 10:17:50;;;;;;;23.48;13.18;;;;;;;22.23;51.66;100175.31;5052877;28;20383;-62
2023/09/21 10:20:25;;;;;;;23.73;12.60;;;;;;;22.33;51.85;100176.88;5053096;28;20046;-63
2023/09/21 10:22:55;;;;;;;19.20;12.38;;;;;;;22.39;51.49;100180.72;5053660;28;20051;-62
2023/09/21 10:25:44;;;;;;;21.50;12.52;;;;;;;22.53;51.58;100170.81;5052028;28;20132;-63
2023/09/21 10:28:34;;;;;;;22.08;13.15;;;;;;;22.64;51.10;100173.88;5052822;28;20041;-64
2023/09/21 10:31:06;;;;;;;19.42;13.23;;;;;;;22.68;50.99;100171.63;5053391;28;20029;-63
2023/09/21 10:33:36;;;;;;;21.90;14.13;;;;;;;22.70;50.82;100164.09;5052753;28;20041;-64
2023/09/21 10:36:01;;;;;;;18.30;13.30;;;;;;;22.69;50.49;100162.41;5052467;28;20102;-63
2023/09/21 10:38:27;;;;;;;19.83;13.82;;;;;;;22.72;50.29;100148.34;5052718;28;20033;-63
2023/09/21 10:40:53;;;;;;;24.15;13.07;;;;;;;22.84;50.39;100156.00;5052732;28;20032;-61
2023/09/21 10:43:37;;;;;;;17.50;13.02;;;;;;;23.20;49.89;100152.31;5053145;28;20063;-65
2023/09/21 10:46:15;;;;;;;19.95;12.85;;;;;;;23.27;49.20;100147.75;5051697;28;20045;-63
2023/09/21 10:48:41;;;;;;;19.90;13.05;;;;;;;23.49;48.14;100148.50;5052342;28;20050;-65
2023/09/21 10:51:09;;;;;;;18.42;13.85;;;;;;;23.67;48.23;100149.03;5052619;28;20451;-62
2023/09/21 10:53:36;;;;;;;18.85;13.13;;;;;;;23.72;47.94;100154.75;5052235;28;20029;-62
2023/09/21 10:56:02;;;;;;;22.88;12.70;;;;;;;23.69;47.80;100155.97;5052569;28;20021;-64
2023/09/21 10:58:32;;;;;;;19.80;13.25;;;;;;;23.72;48.16;100154.75;5052607;28;20451;-63
2023/09/21 11:01:00;;;;;;;18.40;12.70;;;;;;;23.56;48.35;100155.91;5052080;28;20104;-64
2023/09/21 11:03:27;;;;;;;23.27;12.73;;;;;;;23.44;48.33;100152.91;5052611;28;20033;-62
2023/09/21 11:05:54;;;;;;;19.88;13.05;;;;;;;23.21;48.45;100132.13;5052557;28;20056;-64
2023/09/21 11:08:24;;;;;;;18.52;13.23;;;;;;;23.35;48.90;100160.41;5052116;28;20135;-63
2023/09/21 11:10:50;;;;;;;17.27;12.60;;;;;;;23.22;49.26;100161.13;5052919;28;20472;-63
2023/09/21 11:13:17;;;;;;;20.02;13.27;;;;;;;23.11;49.26;100154.34;5052022;28;20080;-63
2023/09/21 11:15:44;;;;;;;24.73;13.90;;;;;;;23.04;49.80;100162.47;5052249;28;20343;-63
2023/09/21 11:18:10;;;;;;;19.38;12.57;;;;;;;23.00;49.88;100158.44;5052411;28;20333;-64
2023/09/21 11:20:35;;;;;;;17.15;12.60;;;;;;;23.07;49.69;100156.59;5052625;28;20052;-63
2023/09/21 11:23:03;;;;;;;21.00;13.52;;;;;;;23.24;49.35;100153.59;5052152;28;20052;-63